createdAt,value
2023-05-12T00:02:16.674Z,72.92
2023-05-12T00:05:20.574Z,73.57
2023-05-12T00:08:24.384Z,73.78
2023-05-12T00:11:28.330Z,73.66
2023-05-12T00:14:33.725Z,72.86
2023-05-12T00:17:37.622Z,72.84
2023-05-12T00:20:41.412Z,72.82
2023-05-12T00:23:45.404Z,73.03
2023-05-12T00:26:49.845Z,72.43
2023-05-12T00:29:55.095Z,73.37
2023-05-12T00:32:59.134Z,72.54
2023-05-12T00:36:04.336Z,72.53
2023-05-12T00:39:08.106Z,71.62
2023-05-12T00:42:12.225Z,72.83
2023-05-12T00:45:17.482Z,72.85
2023-05-12T00:48:21.676Z,72.53
2023-05-12T00:51:27.260Z,72.56
2023-05-12T00:54:31.981Z,72.82
2023-05-12T00:57:36.025Z,74.06
2023-05-12T01:00:41.406Z,73.25
2023-05-12T01:03:45.939Z,74.52
2023-05-12T01:06:55.703Z,73.95
2023-05-12T01:10:00.258Z,73.84
2023-05-12T01:13:06.037Z,73.24
2023-05-12T01:16:16.849Z,74.35
2023-05-12T01:19:34.502Z,73.20
2023-05-12T01:22:39.668Z,73.03
2023-05-12T01:25:45.912Z,73.41
2023-05-12T01:28:51.953Z,73.48
2023-05-12T01:31:56.861Z,72.80
2023-05-12T01:35:01.199Z,74.33
2023-05-12T01:38:07.538Z,73.73
2023-05-12T01:41:14.847Z,73.38
2023-05-12T01:44:20.768Z,73.31
2023-05-12T01:47:24.756Z,73.45
2023-05-12T01:50:35.188Z,72.85
2023-05-12T01:53:42.562Z,74.26
2023-05-12T01:56:46.361Z,73.99
2023-05-12T01:59:51.840Z,74.32
2023-05-12T02:02:55.822Z,74.77
2023-05-12T02:05:59.627Z,74.92
2023-05-12T02:09:07.661Z,74.22
2023-05-12T02:12:11.538Z,73.29
2023-05-12T02:15:16.952Z,73.21
2023-05-12T02:18:22.943Z,72.29
2023-05-12T02:21:28.242Z,73.24
2023-05-12T02:24:32.165Z,72.45
2023-05-12T02:27:36.059Z,72.01
2023-05-12T02:30:49.011Z,72.82
2023-05-12T02:33:53.393Z,73.76
2023-05-12T02:36:57.300Z,72.90
2023-05-12T02:40:01.264Z,73.17
2023-05-12T02:43:05.223Z,72.52
2023-05-12T02:46:10.616Z,73.22
2023-05-12T02:49:14.824Z,72.75
2023-05-12T02:52:18.672Z,72.55
2023-05-12T02:55:22.560Z,73.39
2023-05-12T02:58:26.850Z,74.05
2023-05-12T03:01:32.084Z,74.88
2023-05-12T03:04:35.852Z,74.01
2023-05-12T03:07:39.944Z,73.05
2023-05-12T03:10:44.895Z,72.84
2023-05-12T03:13:49.190Z,72.21
2023-05-12T03:16:54.509Z,71.45
2023-05-12T03:19:58.425Z,72.38
2023-05-12T03:23:02.370Z,71.53
2023-05-12T03:26:06.209Z,72.07
2023-05-12T03:29:10.039Z,71.85
2023-05-12T03:32:15.301Z,72.66
2023-05-12T03:35:19.064Z,71.65
2023-05-12T03:38:22.986Z,71.22
2023-05-12T03:41:26.760Z,71.89
2023-05-12T03:44:30.596Z,71.36
2023-05-12T03:47:36.418Z,71.58
2023-05-12T03:50:40.312Z,71.16
2023-05-12T03:53:46.572Z,71.36
2023-05-12T03:56:50.242Z,70.14
2023-05-12T03:59:54.068Z,69.41
2023-05-12T04:02:59.398Z,70.60
2023-05-12T04:06:04.098Z,69.85
2023-05-12T04:09:07.936Z,69.77
2023-05-12T04:12:13.449Z,69.94
2023-05-12T04:15:17.278Z,70.24
2023-05-12T04:18:22.462Z,70.56
2023-05-12T04:21:26.425Z,68.69
2023-05-12T04:24:31.416Z,69.03
2023-05-12T04:27:35.318Z,70.07
2023-05-12T04:30:42.262Z,69.21
2023-05-12T04:33:48.438Z,70.26
2023-05-12T04:36:53.379Z,70.34
2023-05-12T04:39:57.553Z,69.49
2023-05-12T04:43:01.362Z,70.19
2023-05-12T04:46:06.773Z,69.95
2023-05-12T04:49:12.414Z,68.50
2023-05-12T04:52:16.143Z,69.04
2023-05-12T04:55:20.224Z,68.11
2023-05-12T04:58:24.092Z,67.91
2023-05-12T05:01:29.060Z,69.27
2023-05-12T05:04:35.191Z,69.50
2023-05-12T05:07:39.283Z,69.14
2023-05-12T05:10:43.254Z,69.78
2023-05-12T05:13:47.051Z,68.88
2023-05-12T05:16:51.149Z,69.65
2023-05-12T05:19:59.265Z,69.48
2023-05-12T05:23:07.441Z,69.49
2023-05-12T05:26:12.284Z,70.51
2023-05-12T05:29:16.212Z,71.24
2023-05-12T05:32:20.160Z,70.59
2023-05-12T05:35:25.593Z,69.35
2023-05-12T05:38:30.577Z,68.96
2023-05-12T05:41:34.384Z,67.97
2023-05-12T05:44:38.778Z,68.48
2023-05-12T05:47:43.212Z,68.10
2023-05-12T05:50:49.007Z,67.74
2023-05-12T05:53:53.151Z,69.36
2023-05-12T05:56:57.718Z,68.54
2023-05-12T06:00:01.601Z,68.64
2023-05-12T06:03:06.219Z,67.36
2023-05-12T06:06:11.635Z,66.15
2023-05-12T06:09:16.168Z,64.46
2023-05-12T06:12:20.002Z,63.41
2023-05-12T06:15:24.008Z,62.45
2023-05-12T06:18:27.962Z,61.67
2023-05-12T06:21:33.673Z,61.60
2023-05-12T06:24:37.591Z,61.82
2023-05-12T06:27:41.436Z,60.76
2023-05-12T06:30:45.333Z,61.99
2023-05-12T06:33:49.396Z,61.69
2023-05-12T06:36:55.124Z,60.60
2023-05-12T06:40:00.911Z,61.07
2023-05-12T06:43:04.999Z,60.15
2023-05-12T06:46:12.630Z,58.62
2023-05-12T06:49:19.580Z,56.46
2023-05-12T06:52:25.328Z,56.13
2023-05-12T06:55:29.242Z,56.80
2023-05-12T06:58:33.369Z,57.10
2023-05-12T07:01:37.417Z,57.77
2023-05-12T07:04:41.339Z,55.98
2023-05-12T07:07:46.960Z,57.04
2023-05-12T07:10:51.060Z,57.33
2023-05-12T07:13:55.046Z,56.63
2023-05-12T07:16:59.184Z,57.57
2023-05-12T07:20:05.134Z,57.48
2023-05-12T07:23:10.846Z,56.86
2023-05-12T07:26:14.775Z,57.76
2023-05-12T07:29:19.035Z,57.64
2023-05-12T07:32:22.981Z,56.47
2023-05-12T07:35:26.925Z,57.44
2023-05-12T07:38:32.372Z,56.77
2023-05-12T07:41:36.342Z,55.12
2023-05-12T07:44:40.246Z,54.82
2023-05-12T07:47:45.053Z,52.93
2023-05-12T07:50:49.003Z,52.06
2023-05-12T07:53:55.552Z,52.59
2023-05-12T07:56:59.660Z,52.95
2023-05-12T08:00:05.260Z,52.62
2023-05-12T08:03:17.386Z,54.07
2023-05-12T08:06:21.369Z,54.21
2023-05-12T08:09:26.798Z,53.64
2023-05-12T08:12:30.968Z,52.93
2023-05-12T08:15:35.010Z,52.52
2023-05-12T08:18:39.022Z,52.50
2023-05-12T08:21:42.969Z,52.01
2023-05-12T08:24:49.173Z,48.85
2023-05-12T08:27:52.939Z,46.37
2023-05-12T08:30:56.929Z,45.29
2023-05-12T08:34:09.730Z,44.62
2023-05-12T08:37:14.940Z,44.90
2023-05-12T08:40:24.008Z,43.26
2023-05-12T08:43:35.736Z,42.72
2023-05-12T08:46:39.936Z,44.87
2023-05-12T08:49:45.844Z,45.07
2023-05-12T08:52:51.248Z,44.00
2023-05-12T08:57:09.043Z,43.15
2023-05-12T08:59:21.942Z,42.46
2023-05-12T09:02:28.171Z,42.66
2023-05-12T09:05:35.326Z,42.92
2023-05-12T09:08:39.660Z,43.54
2023-05-12T09:11:45.489Z,44.73
2023-05-12T09:14:56.465Z,44.88
2023-05-12T09:18:00.521Z,42.99
2023-05-12T09:21:05.975Z,42.74
2023-05-12T09:24:09.992Z,41.82
2023-05-12T09:27:15.470Z,42.92
2023-05-12T09:30:31.918Z,43.12
2023-05-12T09:33:37.436Z,43.89
2023-05-12T09:36:41.943Z,41.49
2023-05-12T09:39:46.220Z,40.42
2023-05-12T09:42:52.080Z,38.97
2023-05-12T09:45:55.968Z,38.97
2023-05-12T09:49:00.412Z,39.79
2023-05-12T09:52:06.454Z,39.08
2023-05-12T09:55:12.164Z,39.66
2023-05-12T09:58:19.083Z,39.59
2023-05-12T10:01:24.103Z,38.31
2023-05-12T10:04:30.725Z,38.47
2023-05-12T10:07:35.174Z,38.74
2023-05-12T10:10:39.352Z,39.41
2023-05-12T10:13:45.286Z,38.75
2023-05-12T10:16:51.472Z,38.23
2023-05-12T10:19:56.093Z,38.33
2023-05-12T10:23:02.878Z,38.47
2023-05-12T10:26:08.148Z,38.99
2023-05-12T10:29:14.570Z,39.15
2023-05-12T10:32:18.604Z,39.41
2023-05-12T10:35:33.146Z,39.77
2023-05-12T10:38:42.746Z,39.55
2023-05-12T10:41:46.725Z,38.80
2023-05-12T10:44:54.336Z,38.21
2023-05-12T10:48:09.516Z,37.85
2023-05-12T10:51:13.545Z,38.25
2023-05-12T10:54:23.133Z,38.50
2023-05-12T10:57:27.327Z,38.96
2023-05-12T11:00:34.526Z,38.80
2023-05-12T11:03:39.626Z,38.55
2023-05-12T11:06:46.966Z,38.45
2023-05-12T11:09:58.476Z,38.37
2023-05-12T11:13:04.705Z,38.52
2023-05-12T11:16:14.077Z,39.34
2023-05-12T11:19:20.413Z,38.80
2023-05-12T11:22:25.338Z,38.18
2023-05-12T11:25:29.647Z,38.19
2023-05-12T11:28:42.043Z,38.16
2023-05-12T11:31:50.847Z,37.83
2023-05-12T11:34:54.949Z,38.25
2023-05-12T11:37:58.951Z,38.20
2023-05-12T11:41:03.181Z,37.80
2023-05-12T11:44:15.649Z,37.16
2023-05-12T11:47:21.591Z,37.80
2023-05-12T11:50:26.390Z,37.57
2023-05-12T11:53:30.347Z,36.92
2023-05-12T11:56:34.379Z,37.72
2023-05-12T11:59:38.321Z,36.73
2023-05-12T12:02:44.076Z,37.74
2023-05-12T12:06:01.293Z,36.61
2023-05-12T12:09:05.192Z,36.90
2023-05-12T12:12:11.976Z,37.69
2023-05-12T12:15:15.905Z,37.08
2023-05-12T12:18:21.456Z,37.38
2023-05-12T12:21:26.320Z,36.97
2023-05-12T12:24:30.231Z,37.21
2023-05-12T12:27:34.106Z,36.92
2023-05-12T12:30:38.039Z,36.81
2023-05-12T12:33:43.607Z,36.77
2023-05-12T12:36:48.398Z,37.02
2023-05-12T12:39:52.271Z,37.45
2023-05-12T12:42:56.313Z,37.12
2023-05-12T12:46:00.272Z,36.53
2023-05-12T12:49:06.118Z,36.69
2023-05-12T12:52:10.440Z,36.38
2023-05-12T12:55:14.459Z,37.15
2023-05-12T12:58:18.414Z,36.41
2023-05-12T13:01:22.425Z,36.35
2023-05-12T13:04:27.909Z,37.67
2023-05-12T13:07:32.270Z,37.44
2023-05-12T13:10:36.690Z,37.21
2023-05-12T13:13:40.638Z,36.85
2023-05-12T13:16:44.777Z,37.54
2023-05-12T13:19:50.248Z,37.66
2023-05-12T13:22:54.378Z,38.08
2023-05-12T13:25:59.259Z,38.55
2023-05-12T13:29:03.358Z,38.07
2023-05-12T13:32:07.858Z,38.46
2023-05-12T13:35:13.612Z,39.37
2023-05-12T13:38:17.811Z,39.06
2023-05-12T13:41:21.745Z,39.48
2023-05-12T13:44:25.757Z,39.00
2023-05-12T13:47:29.616Z,39.41
2023-05-12T13:50:35.019Z,39.37
2023-05-12T13:53:39.954Z,40.14
2023-05-12T13:56:51.332Z,41.24
2023-05-12T13:59:58.073Z,40.15
2023-05-12T14:03:02.094Z,39.86
2023-05-12T14:06:08.143Z,39.54
2023-05-12T14:09:12.255Z,39.66
2023-05-12T14:12:16.423Z,40.29
2023-05-12T14:15:29.612Z,40.50
2023-05-12T14:18:42.582Z,40.32
2023-05-12T14:21:48.760Z,39.89
2023-05-12T14:24:53.160Z,39.88
2023-05-12T14:27:57.136Z,39.75
2023-05-12T14:31:01.108Z,39.02
2023-05-12T14:34:05.466Z,39.25
2023-05-12T14:37:10.805Z,38.44
2023-05-12T14:40:15.732Z,38.39
2023-05-12T14:43:19.824Z,38.47
2023-05-12T14:46:25.251Z,38.07
2023-05-12T14:49:29.303Z,37.62
2023-05-12T14:52:38.737Z,37.35
2023-05-12T14:55:42.697Z,36.84
2023-05-12T14:58:46.591Z,37.35
2023-05-12T15:01:50.575Z,37.56
2023-05-12T15:04:54.469Z,35.82
2023-05-12T15:07:59.918Z,36.53
2023-05-12T15:11:03.949Z,35.84
2023-05-12T15:14:07.785Z,36.18
2023-05-12T15:17:11.779Z,35.90
2023-05-12T15:20:16.067Z,35.13
2023-05-12T15:23:21.688Z,35.74
2023-05-12T15:26:33.974Z,34.78
2023-05-12T15:29:40.422Z,35.08
2023-05-12T15:32:44.615Z,35.38
2023-05-12T15:35:48.512Z,34.65
2023-05-12T15:38:54.003Z,34.83
2023-05-12T15:41:59.188Z,35.67
2023-05-12T15:45:03.282Z,34.85
2023-05-12T15:48:09.695Z,35.30
2023-05-12T15:51:13.791Z,35.19
2023-05-12T15:54:19.192Z,35.39
2023-05-12T15:57:23.090Z,35.78
2023-05-12T16:00:27.166Z,36.29
2023-05-12T16:03:32.069Z,36.05
2023-05-12T16:06:35.970Z,36.73
2023-05-12T16:09:41.406Z,37.15
2023-05-12T16:12:48.207Z,36.22
2023-05-12T16:15:52.859Z,36.33
2023-05-12T16:18:56.861Z,36.76
2023-05-12T16:22:00.864Z,36.21
2023-05-12T16:25:07.166Z,36.22
2023-05-12T16:28:11.092Z,36.83
2023-05-12T16:31:18.657Z,37.03
2023-05-12T16:34:22.766Z,37.16
2023-05-12T16:37:26.725Z,37.18
2023-05-12T16:40:32.272Z,37.04
2023-05-12T16:43:36.338Z,37.19
2023-05-12T16:46:41.684Z,37.38
2023-05-12T16:49:45.793Z,37.38
2023-05-12T16:52:49.699Z,37.57
2023-05-12T16:55:55.347Z,38.16
2023-05-12T16:58:59.212Z,37.83
2023-05-12T17:02:03.193Z,38.32
2023-05-12T17:05:08.273Z,38.73
2023-05-12T17:08:12.281Z,38.88
2023-05-12T17:11:17.787Z,39.09
2023-05-12T17:14:21.764Z,39.34
2023-05-12T17:17:25.776Z,39.10
2023-05-12T17:20:29.826Z,39.25
2023-05-12T17:23:33.853Z,39.65
2023-05-12T17:26:39.260Z,39.86
2023-05-12T17:29:43.098Z,39.57
2023-05-12T17:32:47.019Z,39.86
2023-05-12T17:36:03.843Z,39.81
2023-05-12T17:39:16.306Z,40.14
2023-05-12T17:42:21.694Z,40.13
2023-05-12T17:45:25.711Z,40.40
2023-05-12T17:48:33.489Z,40.21
2023-05-12T17:51:37.613Z,40.79
2023-05-12T17:54:41.745Z,40.39
2023-05-12T17:57:47.229Z,40.46
2023-05-12T18:00:51.337Z,40.40
2023-05-12T18:03:55.432Z,41.13
2023-05-12T18:06:59.766Z,41.18
2023-05-12T18:10:03.983Z,40.96
2023-05-12T18:13:09.371Z,41.30
2023-05-12T18:16:25.346Z,41.37
2023-05-12T18:19:33.005Z,41.39
2023-05-12T18:22:36.934Z,41.00
2023-05-12T18:25:41.221Z,41.38
2023-05-12T18:28:47.638Z,41.50
2023-05-12T18:31:51.588Z,41.79
2023-05-12T18:34:55.523Z,42.32
2023-05-12T18:38:00.147Z,42.65
2023-05-12T18:41:04.032Z,42.78
2023-05-12T18:44:10.728Z,42.74
2023-05-12T18:47:14.684Z,43.00
2023-05-12T18:50:18.726Z,43.26
2023-05-12T18:53:22.583Z,43.72
2023-05-12T18:56:26.599Z,44.08
2023-05-12T18:59:32.856Z,44.14
2023-05-12T19:02:36.959Z,44.20
2023-05-12T19:05:44.777Z,44.46
2023-05-12T19:08:48.724Z,44.08
2023-05-12T19:11:52.706Z,43.81
2023-05-12T19:14:58.155Z,43.78
2023-05-12T19:18:02.002Z,43.53
2023-05-12T19:21:05.944Z,43.45
2023-05-12T19:24:10.824Z,43.69
2023-05-12T19:27:14.799Z,42.91
2023-05-12T19:30:20.218Z,43.01
2023-05-12T19:33:24.113Z,42.87
2023-05-12T19:36:29.111Z,42.93
2023-05-12T19:39:33.067Z,43.26
2023-05-12T19:42:38.172Z,42.67
2023-05-12T19:45:43.639Z,42.30
2023-05-12T19:48:47.681Z,41.06
2023-05-12T19:51:52.204Z,41.10
2023-05-12T19:54:56.122Z,40.74
2023-05-12T19:58:02.195Z,40.39
2023-05-12T20:01:07.596Z,39.94
2023-05-12T20:04:11.506Z,39.78
2023-05-12T20:07:15.402Z,39.80
2023-05-12T20:10:19.410Z,39.66
2023-05-12T20:13:23.374Z,40.01
2023-05-12T20:16:28.978Z,40.53
2023-05-12T20:19:33.859Z,40.70
2023-05-12T20:22:37.762Z,41.05
2023-05-12T20:25:41.758Z,40.79
2023-05-12T20:28:45.652Z,40.97
2023-05-12T20:31:51.831Z,41.33
2023-05-12T20:34:55.693Z,41.19
2023-05-12T20:37:59.582Z,42.69
2023-05-12T20:41:06.660Z,43.58
2023-05-12T20:44:11.229Z,43.77
2023-05-12T20:47:16.740Z,43.73
2023-05-12T20:50:20.690Z,44.04
2023-05-12T20:53:24.648Z,44.22
2023-05-12T20:56:28.637Z,44.73
2023-05-12T20:59:32.575Z,44.95
2023-05-12T21:02:38.850Z,45.57
2023-05-12T21:05:47.848Z,46.00
2023-05-12T21:08:51.743Z,46.39
2023-05-12T21:11:55.610Z,46.76
2023-05-12T21:14:59.531Z,47.08
2023-05-12T21:18:05.085Z,47.25
2023-05-12T21:21:08.951Z,47.56
2023-05-12T21:24:12.937Z,47.88
2023-05-12T21:27:16.844Z,47.60
2023-05-12T21:30:21.461Z,47.70
2023-05-12T21:33:27.015Z,48.33
2023-05-12T21:36:31.985Z,48.21
2023-05-12T21:39:35.654Z,48.02
2023-05-12T21:42:39.571Z,48.05
2023-05-12T21:45:43.533Z,48.10
2023-05-12T21:48:48.934Z,48.23
2023-05-12T21:51:56.288Z,48.19
2023-05-12T21:55:02.550Z,48.43
2023-05-12T21:58:06.410Z,48.67
2023-05-12T22:01:10.333Z,49.06
2023-05-12T22:04:15.790Z,49.30
2023-05-12T22:07:19.685Z,49.77
2023-05-12T22:10:23.890Z,49.46
2023-05-12T22:13:28.080Z,50.00
2023-05-12T22:16:41.236Z,49.63
2023-05-12T22:19:47.970Z,50.31
2023-05-12T22:22:51.915Z,50.72
2023-05-12T22:25:56.299Z,50.64
2023-05-12T22:29:00.372Z,51.29
2023-05-12T22:32:04.366Z,51.36
2023-05-12T22:35:10.809Z,52.18
2023-05-12T22:38:14.789Z,51.72
2023-05-12T22:41:18.654Z,52.53
2023-05-12T22:44:22.688Z,51.91
2023-05-12T22:47:26.781Z,52.87
2023-05-12T22:50:32.386Z,52.82
2023-05-12T22:53:37.280Z,52.54
2023-05-12T22:56:41.350Z,52.55
2023-05-12T22:59:45.282Z,52.34
2023-05-12T23:02:49.328Z,53.28
2023-05-12T23:05:54.715Z,53.66
2023-05-12T23:08:58.660Z,53.18
2023-05-12T23:12:02.614Z,53.48
2023-05-12T23:15:08.027Z,53.51
2023-05-12T23:18:11.882Z,53.38
2023-05-12T23:21:17.363Z,53.41
2023-05-12T23:24:21.992Z,52.97
2023-05-12T23:27:26.238Z,53.61
2023-05-12T23:30:32.264Z,53.04
2023-05-12T23:33:36.502Z,52.77
2023-05-12T23:36:41.950Z,52.90
2023-05-12T23:39:45.651Z,52.83
2023-05-12T23:42:49.507Z,52.80
2023-05-12T23:45:53.557Z,52.38
2023-05-12T23:48:57.551Z,52.80
2023-05-12T23:52:03.031Z,52.35
2023-05-12T23:55:07.730Z,52.55
2023-05-12T23:58:12.481Z,52.87
